sensor_id;sensor_type;location;lat;lon;timestamp;temperature;humidity
68109;SHT30;54893;49.864;19.084;2023-03-01T00:04:34;-4.54;93.87
68109;SHT30;54893;49.864;19.084;2023-03-01T00:09:36;-4.64;94.45
68109;SHT30;54893;49.864;19.084;2023-03-01T00:14:37;-4.69;89.36
68109;SHT30;54893;49.864;19.084;2023-03-01T00:19:37;-4.73;92.78
68109;SHT30;54893;49.864;19.084;2023-03-01T00:24:38;-4.81;92.62
68109;SHT30;54893;49.864;19.084;2023-03-01T00:29:38;-4.79;90.32
68109;SHT30;54893;49.864;19.084;2023-03-01T00:34:38;-4.73;96.18
68109;SHT30;54893;49.864;19.084;2023-03-01T00:39:38;-4.80;94.38
68109;SHT30;54893;49.864;19.084;2023-03-01T00:44:39;-4.94;95.58
68109;SHT30;54893;49.864;19.084;2023-03-01T00:49:39;-4.96;94.74
68109;SHT30;54893;49.864;19.084;2023-03-01T00:54:40;-5.00;95.45
68109;SHT30;54893;49.864;19.084;2023-03-01T00:59:40;-5.01;95.37
68109;SHT30;54893;49.864;19.084;2023-03-01T01:04:40;-5.08;95.53
68109;SHT30;54893;49.864;19.084;2023-03-01T01:09:41;-5.08;95.89
68109;SHT30;54893;49.864;19.084;2023-03-01T01:14:41;-5.10;96.19
68109;SHT30;54893;49.864;19.084;2023-03-01T01:19:42;-5.22;96.38
68109;SHT30;54893;49.864;19.084;2023-03-01T01:24:42;-5.30;96.47
68109;SHT30;54893;49.864;19.084;2023-03-01T01:29:42;-5.35;96.91
68109;SHT30;54893;49.864;19.084;2023-03-01T01:34:43;-5.39;95.56
68109;SHT30;54893;49.864;19.084;2023-03-01T01:39:43;-5.28;93.97
68109;SHT30;54893;49.864;19.084;2023-03-01T01:44:47;-5.25;94.46
68109;SHT30;54893;49.864;19.084;2023-03-01T01:49:51;-5.24;95.24
68109;SHT30;54893;49.864;19.084;2023-03-01T02:00:14;-4.84;92.72
68109;SHT30;54893;49.864;19.084;2023-03-01T02:05:24;-4.87;92.82
68109;SHT30;54893;49.864;19.084;2023-03-01T02:10:27;-4.91;93.65
68109;SHT30;54893;49.864;19.084;2023-03-01T02:15:35;-5.03;93.03
68109;SHT30;54893;49.864;19.084;2023-03-01T02:20:58;-4.91;93.92
68109;SHT30;54893;49.864;19.084;2023-03-01T02:31:17;-4.93;95.99
68109;SHT30;54893;49.864;19.084;2023-03-01T02:36:40;-5.08;94.57
68109;SHT30;54893;49.864;19.084;2023-03-01T02:41:44;-5.27;95.40
68109;SHT30;54893;49.864;19.084;2023-03-01T02:46:49;-5.32;95.70
68109;SHT30;54893;49.864;19.084;2023-03-01T02:57:02;-5.35;96.86
68109;SHT30;54893;49.864;19.084;2023-03-01T03:02:03;-5.34;96.84
68109;SHT30;54893;49.864;19.084;2023-03-01T03:07:03;-5.54;96.38
68109;SHT30;54893;49.864;19.084;2023-03-01T03:12:04;-5.56;96.10
68109;SHT30;54893;49.864;19.084;2023-03-01T03:17:04;-5.47;96.98
68109;SHT30;54893;49.864;19.084;2023-03-01T03:22:06;-5.56;96.79
68109;SHT30;54893;49.864;19.084;2023-03-01T03:27:09;-5.54;98.35
68109;SHT30;54893;49.864;19.084;2023-03-01T03:32:09;-5.65;96.40
68109;SHT30;54893;49.864;19.084;2023-03-01T03:37:09;-5.65;95.64
68109;SHT30;54893;49.864;19.084;2023-03-01T03:42:29;-5.69;94.73
68109;SHT30;54893;49.864;19.084;2023-03-01T03:47:30;-5.76;96.37
68109;SHT30;54893;49.864;19.084;2023-03-01T03:52:30;-5.85;96.82
68109;SHT30;54893;49.864;19.084;2023-03-01T03:57:30;-5.82;97.04
68109;SHT30;54893;49.864;19.084;2023-03-01T04:02:31;-5.87;97.30
68109;SHT30;54893;49.864;19.084;2023-03-01T04:07:31;-5.90;97.68
68109;SHT30;54893;49.864;19.084;2023-03-01T04:12:33;-5.79;96.25
68109;SHT30;54893;49.864;19.084;2023-03-01T04:17:34;-5.76;96.37
68109;SHT30;54893;49.864;19.084;2023-03-01T04:22:34;-5.76;96.73
68109;SHT30;54893;49.864;19.084;2023-03-01T04:27:36;-5.86;96.84
68109;SHT30;54893;49.864;19.084;2023-03-01T04:32:38;-5.85;96.70
68109;SHT30;54893;49.864;19.084;2023-03-01T04:37:38;-5.83;96.22
68109;SHT30;54893;49.864;19.084;2023-03-01T04:42:38;-5.82;97.76
68109;SHT30;54893;49.864;19.084;2023-03-01T04:47:40;-5.85;96.64
68109;SHT30;54893;49.864;19.084;2023-03-01T04:52:42;-5.92;97.04
68109;SHT30;54893;49.864;19.084;2023-03-01T04:57:42;-5.99;97.16
68109;SHT30;54893;49.864;19.084;2023-03-01T05:02:43;-5.96;97.43
68109;SHT30;54893;49.864;19.084;2023-03-01T05:07:43;-6.00;97.58
68109;SHT30;54893;49.864;19.084;2023-03-01T05:12:43;-5.96;97.52
68109;SHT30;54893;49.864;19.084;2023-03-01T05:17:43;-5.93;97.64
68109;SHT30;54893;49.864;19.084;2023-03-01T05:22:44;-5.90;97.44
68109;SHT30;54893;49.864;19.084;2023-03-01T05:27:44;-5.92;92.46
68109;SHT30;54893;49.864;19.084;2023-03-01T05:32:49;-5.71;97.72
68109;SHT30;54893;49.864;19.084;2023-03-01T05:37:55;-5.66;97.38
68109;SHT30;54893;49.864;19.084;2023-03-01T05:42:56;-5.47;97.36
68109;SHT30;54893;49.864;19.084;2023-03-01T05:47:56;-5.25;95.27
68109;SHT30;54893;49.864;19.084;2023-03-01T05:53:15;-5.01;95.07
68109;SHT30;54893;49.864;19.084;2023-03-01T05:58:19;-4.90;94.05
68109;SHT30;54893;49.864;19.084;2023-03-01T06:03:19;-4.84;93.40
68109;SHT30;54893;49.864;19.084;2023-03-01T06:08:19;-4.59;95.18
68109;SHT30;54893;49.864;19.084;2023-03-01T06:13:23;-4.25;93.86
68109;SHT30;54893;49.864;19.084;2023-03-01T06:18:23;-4.02;90.47
68109;SHT30;54893;49.864;19.084;2023-03-01T06:23:23;-3.72;90.05
68109;SHT30;54893;49.864;19.084;2023-03-01T06:28:24;-3.33;89.23
68109;SHT30;54893;49.864;19.084;2023-03-01T06:33:24;-2.89;89.07
68109;SHT30;54893;49.864;19.084;2023-03-01T06:38:25;-2.51;87.69
68109;SHT30;54893;49.864;19.084;2023-03-01T06:43:25;-1.97;90.92
68109;SHT30;54893;49.864;19.084;2023-03-01T06:48:25;-1.94;87.77
68109;SHT30;54893;49.864;19.084;2023-03-01T06:53:29;-1.80;87.78
68109;SHT30;54893;49.864;19.084;2023-03-01T06:58:29;-1.74;88.21
68109;SHT30;54893;49.864;19.084;2023-03-01T07:03:30;-1.59;87.22
68109;SHT30;54893;49.864;19.084;2023-03-01T07:08:30;-1.36;87.25
68109;SHT30;54893;49.864;19.084;2023-03-01T07:13:31;-0.75;86.57
68109;SHT30;54893;49.864;19.084;2023-03-01T07:18:31;-0.39;85.83
68109;SHT30;54893;49.864;19.084;2023-03-01T07:23:33;-0.66;84.33
68109;SHT30;54893;49.864;19.084;2023-03-01T07:28:33;-0.27;82.79
68109;SHT30;54893;49.864;19.084;2023-03-01T07:33:39;-0.41;83.62
68109;SHT30;54893;49.864;19.084;2023-03-01T07:38:39;0.16;82.91
68109;SHT30;54893;49.864;19.084;2023-03-01T07:43:40;0.31;84.08
68109;SHT30;54893;49.864;19.084;2023-03-01T07:48:40;0.51;83.11
68109;SHT30;54893;49.864;19.084;2023-03-01T07:53:40;1.31;83.21
68109;SHT30;54893;49.864;19.084;2023-03-01T07:58:42;1.80;81.55
68109;SHT30;54893;49.864;19.084;2023-03-01T08:03:43;1.69;82.02
68109;SHT30;54893;49.864;19.084;2023-03-01T08:08:44;2.48;79.98
68109;SHT30;54893;49.864;19.084;2023-03-01T08:13:47;2.57;78.07
68109;SHT30;54893;49.864;19.084;2023-03-01T08:18:47;2.70;77.37
68109;SHT30;54893;49.864;19.084;2023-03-01T08:23:48;3.16;77.95
68109;SHT30;54893;49.864;19.084;2023-03-01T08:28:49;3.50;74.81
68109;SHT30;54893;49.864;19.084;2023-03-01T08:33:53;2.02;75.40
68109;SHT30;54893;49.864;19.084;2023-03-01T08:38:57;3.23;76.62
68109;SHT30;54893;49.864;19.084;2023-03-01T08:43:58;2.81;75.38
68109;SHT30;54893;49.864;19.084;2023-03-01T08:48:59;3.18;76.07
68109;SHT30;54893;49.864;19.084;2023-03-01T08:53:59;3.59;73.89
68109;SHT30;54893;49.864;19.084;2023-03-01T08:59:00;3.69;71.92
68109;SHT30;54893;49.864;19.084;2023-03-01T09:04:00;3.30;74.84
68109;SHT30;54893;49.864;19.084;2023-03-01T09:09:01;2.98;72.47
68109;SHT30;54893;49.864;19.084;2023-03-01T09:14:05;3.29;73.41
68109;SHT30;54893;49.864;19.084;2023-03-01T09:19:05;3.20;72.93
68109;SHT30;54893;49.864;19.084;2023-03-01T09:24:11;3.08;73.43
68109;SHT30;54893;49.864;19.084;2023-03-01T09:29:13;3.50;72.38
68109;SHT30;54893;49.864;19.084;2023-03-01T09:34:14;3.89;72.54
68109;SHT30;54893;49.864;19.084;2023-03-01T09:39:23;3.79;71.62
68109;SHT30;54893;49.864;19.084;2023-03-01T09:44:35;3.55;71.23
68109;SHT30;54893;49.864;19.084;2023-03-01T09:49:39;4.21;71.78
68109;SHT30;54893;49.864;19.084;2023-03-01T09:54:41;4.33;69.46
68109;SHT30;54893;49.864;19.084;2023-03-01T09:59:59;4.05;71.38
68109;SHT30;54893;49.864;19.084;2023-03-01T10:05:27;4.54;69.63
68109;SHT30;54893;49.864;19.084;2023-03-01T10:10:42;4.62;69.86
68109;SHT30;54893;49.864;19.084;2023-03-01T10:15:49;4.30;70.16
68109;SHT30;54893;49.864;19.084;2023-03-01T10:20:56;4.33;68.76
68109;SHT30;54893;49.864;19.084;2023-03-01T10:26:09;4.41;68.53
68109;SHT30;54893;49.864;19.084;2023-03-01T10:31:15;4.37;68.10
68109;SHT30;54893;49.864;19.084;2023-03-01T10:36:17;4.51;66.42
68109;SHT30;54893;49.864;19.084;2023-03-01T10:41:18;4.62;67.72
68109;SHT30;54893;49.864;19.084;2023-03-01T10:46:30;4.37;68.16
68109;SHT30;54893;49.864;19.084;2023-03-01T10:51:30;4.44;66.33
68109;SHT30;54893;49.864;19.084;2023-03-01T10:56:46;4.41;65.57
68109;SHT30;54893;49.864;19.084;2023-03-01T11:02:15;4.86;65.83
68109;SHT30;54893;49.864;19.084;2023-03-01T11:07:16;4.83;66.37
68109;SHT30;54893;49.864;19.084;2023-03-01T11:12:16;4.67;65.50
68109;SHT30;54893;49.864;19.084;2023-03-01T11:17:35;5.08;64.13
68109;SHT30;54893;49.864;19.084;2023-03-01T11:22:54;5.50;66.84
68109;SHT30;54893;49.864;19.084;2023-03-01T11:27:55;5.35;65.75
68109;SHT30;54893;49.864;19.084;2023-03-01T11:38:25;5.36;64.04
68109;SHT30;54893;49.864;19.084;2023-03-01T11:49:08;5.29;65.40
68109;SHT30;54893;49.864;19.084;2023-03-01T11:54:23;5.39;63.83
68109;SHT30;54893;49.864;19.084;2023-03-01T12:15:02;5.00;63.63
68109;SHT30;54893;49.864;19.084;2023-03-01T12:20:14;5.15;62.89
68109;SHT30;54893;49.864;19.084;2023-03-01T12:25:38;5.37;64.07
68109;SHT30;54893;49.864;19.084;2023-03-01T12:41:26;5.63;62.75
68109;SHT30;54893;49.864;19.084;2023-03-01T12:51:56;5.71;62.20
68109;SHT30;54893;49.864;19.084;2023-03-01T13:02:24;5.57;60.40
68109;SHT30;54893;49.864;19.084;2023-03-01T13:07:54;5.74;60.36
68109;SHT30;54893;49.864;19.084;2023-03-01T13:33:53;5.89;58.87
68109;SHT30;54893;49.864;19.084;2023-03-01T13:43:58;6.07;59.68
68109;SHT30;54893;49.864;19.084;2023-03-01T13:48:58;5.94;60.60
68109;SHT30;54893;49.864;19.084;2023-03-01T13:53:59;5.90;58.63
68109;SHT30;54893;49.864;19.084;2023-03-01T13:59:02;5.87;59.71
68109;SHT30;54893;49.864;19.084;2023-03-01T14:04:20;5.94;58.80
68109;SHT30;54893;49.864;19.084;2023-03-01T14:09:23;6.17;58.38
68109;SHT30;54893;49.864;19.084;2023-03-01T14:19:48;6.29;54.29
68109;SHT30;54893;49.864;19.084;2023-03-01T14:24:58;5.84;56.98
68109;SHT30;54893;49.864;19.084;2023-03-01T14:30:02;5.94;58.24
68109;SHT30;54893;49.864;19.084;2023-03-01T14:35:22;5.97;58.14
68109;SHT30;54893;49.864;19.084;2023-03-01T14:40:32;5.95;58.06
68109;SHT30;54893;49.864;19.084;2023-03-01T14:45:33;6.07;58.27
68109;SHT30;54893;49.864;19.084;2023-03-01T14:50:41;5.90;57.94
68109;SHT30;54893;49.864;19.084;2023-03-01T14:55:45;5.86;58.82
68109;SHT30;54893;49.864;19.084;2023-03-01T15:00:52;5.50;53.17
68109;SHT30;54893;49.864;19.084;2023-03-01T15:05:53;5.64;55.86
68109;SHT30;54893;49.864;19.084;2023-03-01T15:11:03;5.57;56.57
68109;SHT30;54893;49.864;19.084;2023-03-01T15:16:10;5.46;51.80
68109;SHT30;54893;49.864;19.084;2023-03-01T15:26:44;7.34;55.03
68109;SHT30;54893;49.864;19.084;2023-03-01T15:32:39;10.31;49.48
68109;SHT30;54893;49.864;19.084;2023-03-01T15:37:43;7.70;54.31
68109;SHT30;54893;49.864;19.084;2023-03-01T15:42:44;5.75;58.99
68109;SHT30;54893;49.864;19.084;2023-03-01T15:47:50;5.15;62.33
68109;SHT30;54893;49.864;19.084;2023-03-01T15:52:51;4.69;60.17
68109;SHT30;54893;49.864;19.084;2023-03-01T15:58:02;4.05;61.25
68109;SHT30;54893;49.864;19.084;2023-03-01T16:03:03;3.82;62.15
68109;SHT30;54893;49.864;19.084;2023-03-01T16:08:04;3.50;62.97
68109;SHT30;54893;49.864;19.084;2023-03-01T16:13:05;3.02;64.02
68109;SHT30;54893;49.864;19.084;2023-03-01T16:18:06;2.75;64.35
68109;SHT30;54893;49.864;19.084;2023-03-01T16:23:09;2.45;64.87
68109;SHT30;54893;49.864;19.084;2023-03-01T16:28:10;2.18;65.19
68109;SHT30;54893;49.864;19.084;2023-03-01T16:33:10;1.93;65.74
68109;SHT30;54893;49.864;19.084;2023-03-01T16:38:11;1.73;66.39
68109;SHT30;54893;49.864;19.084;2023-03-01T16:43:11;1.49;66.65
68109;SHT30;54893;49.864;19.084;2023-03-01T16:48:12;1.35;67.09
68109;SHT30;54893;49.864;19.084;2023-03-01T16:53:12;1.34;67.23
68109;SHT30;54893;49.864;19.084;2023-03-01T16:58:13;1.19;67.71
68109;SHT30;54893;49.864;19.084;2023-03-01T17:03:15;0.96;68.53
68109;SHT30;54893;49.864;19.084;2023-03-01T17:08:17;0.78;68.90
68109;SHT30;54893;49.864;19.084;2023-03-01T17:13:17;0.57;70.37
68109;SHT30;54893;49.864;19.084;2023-03-01T17:18:18;0.24;71.77
68109;SHT30;54893;49.864;19.084;2023-03-01T17:23:18;0.00;72.71
68109;SHT30;54893;49.864;19.084;2023-03-01T17:28:18;-0.11;73.00
68109;SHT30;54893;49.864;19.084;2023-03-01T17:33:19;-0.25;73.41
68109;SHT30;54893;49.864;19.084;2023-03-01T17:38:20;-0.25;72.76
68109;SHT30;54893;49.864;19.084;2023-03-01T17:43:20;-0.37;74.12
68109;SHT30;54893;49.864;19.084;2023-03-01T17:48:21;-0.35;73.53
68109;SHT30;54893;49.864;19.084;2023-03-01T17:53:21;-0.51;74.37
68109;SHT30;54893;49.864;19.084;2023-03-01T17:58:22;-0.65;74.29
68109;SHT30;54893;49.864;19.084;2023-03-01T18:03:22;-0.66;73.82
68109;SHT30;54893;49.864;19.084;2023-03-01T18:08:22;-0.71;74.43
68109;SHT30;54893;49.864;19.084;2023-03-01T18:13:23;-0.69;72.83
68109;SHT30;54893;49.864;19.084;2023-03-01T18:18:23;-0.73;73.68
68109;SHT30;54893;49.864;19.084;2023-03-01T18:23:24;-0.91;75.41
68109;SHT30;54893;49.864;19.084;2023-03-01T18:28:24;-1.09;76.49
68109;SHT30;54893;49.864;19.084;2023-03-01T18:33:25;-1.09;75.54
68109;SHT30;54893;49.864;19.084;2023-03-01T18:38:26;-1.19;76.06
68109;SHT30;54893;49.864;19.084;2023-03-01T18:43:28;-1.20;76.31
68109;SHT30;54893;49.864;19.084;2023-03-01T18:48:29;-1.19;75.07
68109;SHT30;54893;49.864;19.084;2023-03-01T18:53:30;-1.27;76.13
68109;SHT30;54893;49.864;19.084;2023-03-01T18:58:30;-1.39;77.11
68109;SHT30;54893;49.864;19.084;2023-03-01T19:03:30;-1.40;77.10
68109;SHT30;54893;49.864;19.084;2023-03-01T19:08:31;-1.26;74.72
68109;SHT30;54893;49.864;19.084;2023-03-01T19:13:33;-0.89;72.73
68109;SHT30;54893;49.864;19.084;2023-03-01T19:18:35;-0.88;72.97
68109;SHT30;54893;49.864;19.084;2023-03-01T19:23:36;-0.85;72.87
68109;SHT30;54893;49.864;19.084;2023-03-01T19:28:38;-0.85;73.76
68109;SHT30;54893;49.864;19.084;2023-03-01T19:33:39;-1.03;74.46
68109;SHT30;54893;49.864;19.084;2023-03-01T19:38:41;-1.20;74.42
68109;SHT30;54893;49.864;19.084;2023-03-01T19:43:42;-1.20;73.68
68109;SHT30;54893;49.864;19.084;2023-03-01T19:48:42;-1.13;74.15
68109;SHT30;54893;49.864;19.084;2023-03-01T19:53:44;-1.30;74.96
68109;SHT30;54893;49.864;19.084;2023-03-01T19:58:44;-1.42;75.12
68109;SHT30;54893;49.864;19.084;2023-03-01T20:03:46;-1.49;75.41
68109;SHT30;54893;49.864;19.084;2023-03-01T20:08:48;-1.49;75.41
68109;SHT30;54893;49.864;19.084;2023-03-01T20:13:48;-1.54;76.14
68109;SHT30;54893;49.864;19.084;2023-03-01T20:18:49;-1.53;75.49
68109;SHT30;54893;49.864;19.084;2023-03-01T20:23:49;-1.43;75.06
68109;SHT30;54893;49.864;19.084;2023-03-01T20:28:52;-1.53;75.56
68109;SHT30;54893;49.864;19.084;2023-03-01T20:33:57;-1.68;76.72
68109;SHT30;54893;49.864;19.084;2023-03-01T20:38:58;-1.81;77.68
68109;SHT30;54893;49.864;19.084;2023-03-01T20:43:58;-1.83;77.42
68109;SHT30;54893;49.864;19.084;2023-03-01T20:48:59;-1.90;78.31
68109;SHT30;54893;49.864;19.084;2023-03-01T20:54:00;-2.05;78.68
68109;SHT30;54893;49.864;19.084;2023-03-01T20:59:05;-2.07;77.85
68109;SHT30;54893;49.864;19.084;2023-03-01T21:04:08;-2.09;78.31
68109;SHT30;54893;49.864;19.084;2023-03-01T21:09:09;-1.88;79.14
68109;SHT30;54893;49.864;19.084;2023-03-01T21:14:09;-1.99;77.52
68109;SHT30;54893;49.864;19.084;2023-03-01T21:19:12;-2.14;77.56
68109;SHT30;54893;49.864;19.084;2023-03-01T21:24:12;-2.21;77.22
68109;SHT30;54893;49.864;19.084;2023-03-01T21:29:13;-2.18;76.99
68109;SHT30;54893;49.864;19.084;2023-03-01T21:34:13;-2.19;78.39
68109;SHT30;54893;49.864;19.084;2023-03-01T21:39:13;-2.42;76.09
68109;SHT30;54893;49.864;19.084;2023-03-01T21:44:14;-2.51;78.59
68109;SHT30;54893;49.864;19.084;2023-03-01T21:49:15;-2.42;78.14
68109;SHT30;54893;49.864;19.084;2023-03-01T21:54:16;-2.41;78.30
68109;SHT30;54893;49.864;19.084;2023-03-01T21:59:20;-2.39;78.95
68109;SHT30;54893;49.864;19.084;2023-03-01T22:04:21;-2.45;78.93
68109;SHT30;54893;49.864;19.084;2023-03-01T22:09:22;-2.58;77.73
68109;SHT30;54893;49.864;19.084;2023-03-01T22:14:23;-2.68;79.53
68109;SHT30;54893;49.864;19.084;2023-03-01T22:19:23;-2.99;81.60
68109;SHT30;54893;49.864;19.084;2023-03-01T22:24:24;-2.92;80.67
68109;SHT30;54893;49.864;19.084;2023-03-01T22:29:29;-2.86;79.00
68109;SHT30;54893;49.864;19.084;2023-03-01T22:34:29;-2.82;79.11
68109;SHT30;54893;49.864;19.084;2023-03-01T22:39:29;-3.21;83.75
68109;SHT30;54893;49.864;19.084;2023-03-01T22:44:30;-3.39;82.90
68109;SHT30;54893;49.864;19.084;2023-03-01T22:49:31;-3.13;81.05
68109;SHT30;54893;49.864;19.084;2023-03-01T22:54:31;-2.97;81.05
68109;SHT30;54893;49.864;19.084;2023-03-01T22:59:31;-3.11;82.20
68109;SHT30;54893;49.864;19.084;2023-03-01T23:04:32;-3.23;82.50
68109;SHT30;54893;49.864;19.084;2023-03-01T23:09:33;-3.08;80.47
68109;SHT30;54893;49.864;19.084;2023-03-01T23:14:34;-3.18;82.10
68109;SHT30;54893;49.864;19.084;2023-03-01T23:19:34;-3.57;83.98
68109;SHT30;54893;49.864;19.084;2023-03-01T23:24:35;-3.70;83.24
68109;SHT30;54893;49.864;19.084;2023-03-01T23:29:35;-3.91;86.68
68109;SHT30;54893;49.864;19.084;2023-03-01T23:34:36;-3.96;86.52
68109;SHT30;54893;49.864;19.084;2023-03-01T23:39:37;-4.02;87.77
68109;SHT30;54893;49.864;19.084;2023-03-01T23:44:39;-4.03;88.13
68109;SHT30;54893;49.864;19.084;2023-03-01T23:49:40;-4.06;87.01
68109;SHT30;54893;49.864;19.084;2023-03-01T23:54:40;-4.10;87.38
68109;SHT30;54893;49.864;19.084;2023-03-01T23:59:41;-4.09;88.10
